Terminal Aerodrome Forecast
Issued by NWS Bismarck, ND

Home | Current Version | Previous Version | Text Only | Print | Product List | Glossary Off
Versions: 1 2 3 4 5 6 7 8 9 10 11 12 13 14 15 16 17 18 19 20 21 22 23 24 25 26 27

000
FTUS43 KBIS 241300 AAA
TAFISN
TAF AMD
KISN 241310Z 2413/2512 VRB03KT P6SM OVC007
      TEMPO 2413/2416 SCT007 OVC070
     FM241600 29007KT P6SM SCT080 BKN100
     FM242100 27010KT P6SM BKN040 OVC080
     FM250000 29008KT P6SM -SN BKN020 OVC030
     FM250600 27004KT P6SM SCT030=

USA.gov is the U.S. government's official web portal to all federal, state and local government web resources and services.